Time;durP1;ratioP1;P1;durP2;ratioP2;P2;SDS_P1;SDS_P2;PMS_P1;PMS_P2;Temp;Humidity;BMP_temperature;BMP_pressure;BME280_temperature;BME280_humidity;BME280_pressure;Samples;Min_cycle;Max_cycle;Signal;HPM_P1;HPM_P2
2023/08/02 00:11:57;;;;;;;2.90;2.20;;;;;;;-147.24;100.00;62006.19;41368790;28;20046;-79
2023/08/02 00:31:58;;;;;;;5.97;1.80;;;;;;;-147.24;100.00;62006.19;41374525;28;20042;-81
2023/08/02 00:51:59;;;;;;;1.90;1.70;;;;;;;-147.24;100.00;62006.19;41376934;28;20041;-81
2023/08/02 01:12:09;;;;;;;3.20;2.58;;;;;;;-147.24;100.00;62006.19;41362942;28;20049;-80
2023/08/02 01:32:11;;;;;;;3.55;2.63;;;;;;;-147.24;100.00;62006.19;41373148;28;20050;-80
2023/08/02 01:52:12;;;;;;;4.25;2.90;;;;;;;-147.24;100.00;62006.19;41393669;28;20393;-80
2023/08/02 02:12:12;;;;;;;3.08;2.28;;;;;;;-147.24;100.00;62006.19;41375180;28;20043;-80
2023/08/02 02:32:13;;;;;;;2.38;2.00;;;;;;;-147.24;100.00;62006.19;41380584;28;20513;-80
2023/08/02 02:52:13;;;;;;;3.00;1.95;;;;;;;-147.24;100.00;62006.19;41396741;28;20792;-80
2023/08/02 03:12:14;;;;;;;2.47;2.03;;;;;;;-147.24;100.00;62006.19;41355379;28;20053;-81
2023/08/02 03:32:14;;;;;;;2.90;2.45;;;;;;;-147.24;100.00;62006.19;41364362;28;20081;-79
2023/08/02 03:52:15;;;;;;;4.07;2.85;;;;;;;-147.24;100.00;62006.19;41374180;28;20037;-80
2023/08/02 04:12:17;;;;;;;4.57;2.42;;;;;;;-147.24;100.00;62006.19;41343372;28;20081;-81
2023/08/02 04:32:19;;;;;;;3.60;1.90;;;;;;;-147.24;100.00;62006.19;41360911;28;20080;-81
2023/08/02 04:52:19;;;;;;;4.68;2.22;;;;;;;-147.24;100.00;62006.19;41338614;28;20136;-81
2023/08/02 05:12:25;;;;;;;2.90;2.60;;;;;;;-147.24;100.00;62006.19;41332155;28;20577;-83
2023/08/02 05:32:26;;;;;;;;;;;;;;;-147.24;100.00;62006.19;41357842;28;20050;-84
2023/08/02 05:52:27;;;;;;;3.65;3.33;;;;;;;-147.24;100.00;62006.19;41473145;28;19925;-90
2023/08/02 06:12:29;;;;;;;4.75;3.20;;;;;;;-147.24;100.00;62006.19;41447979;28;20042;-89
2023/08/02 06:32:30;;;;;;;4.50;3.38;;;;;;;-147.24;100.00;62006.19;41429923;28;20054;-83
2023/08/02 06:52:30;;;;;;;5.75;3.08;;;;;;;-147.24;100.00;62006.19;41383589;28;20065;-83
2023/08/02 07:12:31;;;;;;;7.70;3.05;;;;;;;-147.24;100.00;62006.19;41347141;28;20038;-81
2023/08/02 07:32:31;;;;;;;3.78;2.58;;;;;;;-147.24;100.00;62006.19;41341791;28;20046;-80
2023/08/02 07:52:32;;;;;;;4.43;2.35;;;;;;;-147.24;100.00;62006.19;41357525;28;20078;-79
2023/08/02 08:12:32;;;;;;;5.55;2.30;;;;;;;-147.24;100.00;62006.19;41361237;28;20050;-77
2023/08/02 08:32:33;;;;;;;4.40;1.75;;;;;;;-147.24;100.00;62006.19;41344735;28;20109;-82
2023/08/02 08:52:35;;;;;;;2.97;1.63;;;;;;;-147.24;100.00;62006.19;41341262;28;20058;-83
2023/08/02 09:12:44;;;;;;;8.63;1.90;;;;;;;-147.24;100.00;62006.19;41351831;28;20047;-84
2023/08/02 09:32:58;;;;;;;1.92;1.20;;;;;;;-147.24;100.00;62006.19;41344679;28;20502;-79
2023/08/02 09:53:15;;;;;;;2.92;1.05;;;;;;;-147.24;100.00;62006.19;41353456;28;20049;-74
2023/08/02 10:13:25;;;;;;;1.77;1.30;;;;;;;-147.24;100.00;62006.19;41390409;28;20496;-77
2023/08/02 10:33:27;;;;;;;1.17;0.80;;;;;;;-147.24;100.00;62006.19;41389338;28;20121;-74
2023/08/02 10:53:27;;;;;;;2.70;1.00;;;;;;;-147.24;100.00;62006.19;41388167;28;20058;-78
2023/08/02 11:13:41;;;;;;;1.15;1.02;;;;;;;-147.24;100.00;62006.19;41391580;28;20035;-85
2023/08/02 11:33:42;;;;;;;5.10;1.38;;;;;;;-147.24;100.00;62006.19;41360756;28;20449;-86
2023/08/02 11:53:57;;;;;;;1.92;0.90;;;;;;;-147.24;100.00;62006.19;41328653;28;20082;-84
2023/08/02 12:14:01;;;;;;;2.05;1.00;;;;;;;-147.24;100.00;62006.19;41378846;28;20637;-85
2023/08/02 12:34:01;;;;;;;1.15;0.90;;;;;;;-147.24;100.00;62006.19;41384627;28;20046;-87
2023/08/02 12:54:02;;;;;;;2.78;1.23;;;;;;;-147.24;100.00;62006.19;41424428;28;20038;-89
2023/08/02 13:14:02;;;;;;;1.33;1.00;;;;;;;-147.24;100.00;62006.19;41389169;28;20121;-85
2023/08/02 13:34:03;;;;;;;1.55;0.95;;;;;;;-147.24;100.00;62006.19;41391260;28;20057;-80
2023/08/02 13:54:03;;;;;;;1.05;0.95;;;;;;;-147.24;100.00;62006.19;41379378;28;20049;-81
2023/08/02 14:14:07;;;;;;;2.42;1.00;;;;;;;-147.24;100.00;62006.19;41278958;28;20394;-78
2023/08/02 14:34:11;;;;;;;1.40;1.20;;;;;;;-147.24;100.00;62006.19;41311576;28;20046;-78
2023/08/02 14:54:11;;;;;;;1.52;1.20;;;;;;;-147.24;100.00;62006.19;41301006;28;20072;-77
2023/08/02 15:14:11;;;;;;;2.58;0.85;;;;;;;-147.24;100.00;62006.19;41303027;28;20104;-78
2023/08/02 15:34:12;;;;;;;1.73;0.98;;;;;;;-147.24;100.00;62006.19;41290709;28;20057;-77
2023/08/02 15:54:12;;;;;;;2.28;0.95;;;;;;;-147.24;100.00;62006.19;41280174;28;20045;-79
2023/08/02 16:14:14;;;;;;;2.60;1.13;;;;;;;-147.24;100.00;62006.19;41252786;28;20041;-79
2023/08/02 16:34:15;;;;;;;1.40;1.00;;;;;;;-147.24;100.00;62006.19;41264558;28;20042;-78
2023/08/02 16:54:17;;;;;;;1.92;1.10;;;;;;;-147.24;100.00;62006.19;41265462;28;20058;-80
2023/08/02 17:14:18;;;;;;;2.42;1.27;;;;;;;-147.24;100.00;62006.19;41263676;28;21573;-81
2023/08/02 17:34:19;;;;;;;3.20;1.42;;;;;;;-147.24;100.00;62006.19;41294703;28;20065;-80
2023/08/02 17:54:20;;;;;;;1.65;1.20;;;;;;;-147.24;100.00;62006.19;41276786;28;20112;-83
2023/08/02 18:14:21;;;;;;;1.55;1.20;;;;;;;-147.24;100.00;62006.19;41282046;28;20073;-80
2023/08/02 18:34:21;;;;;;;2.58;1.20;;;;;;;-147.24;100.00;62006.19;41275610;28;20046;-86
2023/08/02 18:54:24;;;;;;;3.33;1.20;;;;;;;-147.24;100.00;62006.19;41268942;28;20085;-85
2023/08/02 19:14:25;;;;;;;1.63;1.20;;;;;;;-147.24;100.00;62006.19;41273723;28;20177;-81
2023/08/02 19:34:31;;;;;;;2.08;1.15;;;;;;;-147.24;100.00;62006.19;41261003;28;20129;-82
2023/08/02 19:54:38;;;;;;;1.88;1.00;;;;;;;-147.24;100.00;62006.19;41261906;28;20053;-79
2023/08/02 20:14:39;;;;;;;3.15;1.38;;;;;;;-147.24;100.00;62006.19;41240509;28;20049;-79
2023/08/02 20:34:41;;;;;;;13.95;1.48;;;;;;;-147.24;100.00;62006.19;41223477;28;20509;-80
2023/08/02 20:54:43;;;;;;;3.63;1.20;;;;;;;-147.24;100.00;62006.19;41232000;28;20050;-81
2023/08/02 21:14:43;;;;;;;1.50;1.33;;;;;;;-147.24;100.00;62006.19;41241616;28;20520;-81
2023/08/02 21:34:44;;;;;;;2.65;1.63;;;;;;;-147.24;100.00;62006.19;41234541;28;20050;-81
2023/08/02 21:54:44;;;;;;;3.40;1.40;;;;;;;-147.24;100.00;62006.19;41254350;28;20078;-81
2023/08/02 22:14:46;;;;;;;3.15;1.75;;;;;;;-147.24;100.00;62006.19;41291308;28;20453;-82
2023/08/02 22:34:46;;;;;;;4.85;1.58;;;;;;;-147.24;100.00;62006.19;41283698;28;20087;-83
2023/08/02 22:54:47;;;;;;;2.67;1.58;;;;;;;-147.24;100.00;62006.19;41258362;28;20136;-81
2023/08/02 23:15:00;;;;;;;2.03;1.40;;;;;;;-147.24;100.00;62006.19;41287609;28;20046;-83
2023/08/02 23:35:07;;;;;;;2.63;1.40;;;;;;;-147.24;100.00;62006.19;41290205;28;20050;-83
2023/08/02 23:55:08;;;;;;;1.80;1.17;;;;;;;-147.24;100.00;62006.19;41268587;28;20046;-84
